createdAt,value
2023-03-05T00:01:46.873Z,5.43
2023-03-05T00:04:19.489Z,5.39
2023-03-05T00:06:50.773Z,5.34
2023-03-05T00:09:21.564Z,5.30
2023-03-05T00:11:52.357Z,5.28
2023-03-05T00:14:23.037Z,5.27
2023-03-05T00:16:53.929Z,5.26
2023-03-05T00:19:25.215Z,5.26
2023-03-05T00:21:56.305Z,5.26
2023-03-05T00:24:27.025Z,5.23
2023-03-05T00:26:57.768Z,5.20
2023-03-05T00:29:31.562Z,5.18
2023-03-05T00:32:02.933Z,5.17
2023-03-05T00:34:34.091Z,5.13
2023-03-05T00:37:05.064Z,5.15
2023-03-05T00:39:35.880Z,5.18
2023-03-05T00:42:07.234Z,5.17
2023-03-05T00:44:38.065Z,5.14
2023-03-05T00:47:09.124Z,5.14
2023-03-05T00:49:40.091Z,5.14
2023-03-05T00:52:10.937Z,5.09
2023-03-05T00:54:41.820Z,5.08
2023-03-05T00:57:12.608Z,5.09
2023-03-05T00:59:43.337Z,5.08
2023-03-05T01:02:14.017Z,5.04
2023-03-05T01:04:47.349Z,4.99
2023-03-05T01:07:18.388Z,4.97
2023-03-05T01:09:49.334Z,4.96
2023-03-05T01:12:20.181Z,4.94
2023-03-05T01:14:50.841Z,4.85
2023-03-05T01:17:21.632Z,4.77
2023-03-05T01:19:52.419Z,4.72
2023-03-05T01:22:23.241Z,4.69
2023-03-05T01:24:53.935Z,4.65
2023-03-05T01:27:24.757Z,4.66
2023-03-05T01:29:55.768Z,4.67
2023-03-05T01:32:26.429Z,4.63
2023-03-05T01:34:57.213Z,4.60
2023-03-05T01:37:28.055Z,4.59
2023-03-05T01:39:59.154Z,4.64
2023-03-05T01:42:30.020Z,4.67
2023-03-05T01:45:05.026Z,4.68
2023-03-05T01:47:35.770Z,4.74
2023-03-05T01:50:07.208Z,4.77
2023-03-05T01:52:38.170Z,4.78
2023-03-05T01:55:09.932Z,4.76
2023-03-05T01:57:41.689Z,4.70
2023-03-05T02:00:14.782Z,4.70
2023-03-05T02:02:46.124Z,4.67
2023-03-05T02:05:18.191Z,4.67
2023-03-05T02:07:49.014Z,4.64
2023-03-05T02:10:21.187Z,4.66
2023-03-05T02:12:51.916Z,4.67
2023-03-05T02:15:22.829Z,4.67
2023-03-05T02:17:53.839Z,4.71
2023-03-05T02:20:25.541Z,4.71
2023-03-05T02:22:56.527Z,4.66
2023-03-05T02:25:27.993Z,4.61
2023-03-05T02:28:00.129Z,4.56
2023-03-05T02:30:31.488Z,4.49
2023-03-05T02:33:02.256Z,4.42
2023-03-05T02:35:33.209Z,4.43
2023-03-05T02:38:03.993Z,4.47
2023-03-05T02:40:34.850Z,4.49
2023-03-05T02:43:05.772Z,4.50
2023-03-05T02:45:36.658Z,4.54
2023-03-05T02:48:07.828Z,4.60
2023-03-05T02:50:39.872Z,4.65
2023-03-05T02:53:10.730Z,4.62
2023-03-05T02:55:41.840Z,4.57
2023-03-05T02:58:12.555Z,4.54
2023-03-05T03:00:43.479Z,4.50
2023-03-05T03:03:14.365Z,4.50
2023-03-05T03:05:45.097Z,4.53
2023-03-05T03:08:16.528Z,4.55
2023-03-05T03:10:47.441Z,4.49
2023-03-05T03:13:18.467Z,4.45
2023-03-05T03:15:49.145Z,4.43
2023-03-05T03:18:20.014Z,4.49
2023-03-05T03:20:50.854Z,4.57
2023-03-05T03:23:21.696Z,4.66
2023-03-05T03:25:52.542Z,4.71
2023-03-05T03:28:23.535Z,4.73
2023-03-05T03:30:54.355Z,4.74
2023-03-05T03:33:25.363Z,4.73
2023-03-05T03:35:56.252Z,4.72
2023-03-05T03:38:27.014Z,4.66
2023-03-05T03:40:57.743Z,4.57
2023-03-05T03:43:28.605Z,4.54
2023-03-05T03:45:59.374Z,4.54
2023-03-05T03:48:30.081Z,4.48
2023-03-05T03:51:00.930Z,4.45
2023-03-05T03:53:31.730Z,4.44
2023-03-05T03:56:02.515Z,4.43
2023-03-05T03:58:33.551Z,4.44
2023-03-05T04:01:04.466Z,4.45
2023-03-05T04:03:35.466Z,4.47
2023-03-05T04:06:07.284Z,4.44
2023-03-05T04:08:38.289Z,4.40
2023-03-05T04:11:09.281Z,4.41
2023-03-05T04:13:40.098Z,4.45
2023-03-05T04:16:11.085Z,4.50
2023-03-05T04:18:41.994Z,4.53
2023-03-05T04:21:12.927Z,4.57
2023-03-05T04:23:43.877Z,4.55
2023-03-05T04:26:14.637Z,4.54
2023-03-05T04:28:45.437Z,4.53
2023-03-05T04:31:17.418Z,4.53
2023-03-05T04:33:48.261Z,4.53
2023-03-05T04:36:19.114Z,4.51
2023-03-05T04:38:49.963Z,4.50
2023-03-05T04:41:20.712Z,4.50
2023-03-05T04:43:51.520Z,4.49
2023-03-05T04:46:22.306Z,4.49
2023-03-05T04:48:53.102Z,4.51
2023-03-05T04:51:24.041Z,4.53
2023-03-05T04:53:54.859Z,4.51
2023-03-05T04:56:25.668Z,4.48
2023-03-05T04:58:56.444Z,4.44
2023-03-05T05:01:27.317Z,4.44
2023-03-05T05:03:58.230Z,4.47
2023-03-05T05:06:28.936Z,4.49
2023-03-05T05:08:59.608Z,4.51
2023-03-05T05:11:30.387Z,4.52
2023-03-05T05:14:01.185Z,4.52
2023-03-05T05:16:32.227Z,4.51
2023-03-05T05:19:03.947Z,4.49
2023-03-05T05:21:34.774Z,4.46
2023-03-05T05:24:06.156Z,4.44
2023-03-05T05:26:37.050Z,4.38
2023-03-05T05:29:07.857Z,4.32
2023-03-05T05:31:39.206Z,4.30
2023-03-05T05:34:10.135Z,4.33
2023-03-05T05:36:40.920Z,4.38
2023-03-05T05:39:12.156Z,4.38
2023-03-05T05:41:42.913Z,4.39
2023-03-05T05:44:13.695Z,4.43
2023-03-05T05:46:44.600Z,4.44
2023-03-05T05:49:15.392Z,4.43
2023-03-05T05:51:46.348Z,4.44
2023-03-05T05:54:17.240Z,4.47
2023-03-05T05:56:48.083Z,4.50
2023-03-05T05:59:18.938Z,4.52
2023-03-05T06:01:49.783Z,4.56
2023-03-05T06:04:20.680Z,4.65
2023-03-05T06:06:51.549Z,4.71
2023-03-05T06:09:22.478Z,4.73
2023-03-05T06:11:53.356Z,4.79
2023-03-05T06:14:24.162Z,4.87
2023-03-05T06:16:55.098Z,4.93
2023-03-05T06:19:25.899Z,5.03
2023-03-05T06:21:56.715Z,5.13
2023-03-05T06:24:27.679Z,5.21
2023-03-05T06:26:58.447Z,5.27
2023-03-05T06:29:29.269Z,5.32
2023-03-05T06:32:00.346Z,5.39
2023-03-05T06:34:31.139Z,5.51
2023-03-05T06:37:01.963Z,5.67
2023-03-05T06:39:33.582Z,5.84
2023-03-05T06:42:04.479Z,5.99
2023-03-05T06:44:35.206Z,6.03
2023-03-05T06:47:07.470Z,6.06
2023-03-05T06:49:38.619Z,6.14
2023-03-05T06:52:11.001Z,6.29
2023-03-05T06:54:41.771Z,6.43
2023-03-05T06:57:13.778Z,6.50
2023-03-05T06:59:44.595Z,6.57
2023-03-05T07:02:15.889Z,6.64
2023-03-05T07:04:46.782Z,6.66
2023-03-05T07:07:17.631Z,6.61
2023-03-05T07:09:51.942Z,6.51
2023-03-05T07:12:22.798Z,6.43
2023-03-05T07:15:00.577Z,6.42
2023-03-05T07:17:33.486Z,6.46
2023-03-05T07:20:13.056Z,6.52
2023-03-05T07:22:49.429Z,6.58
2023-03-05T07:28:33.791Z,6.53
2023-03-05T07:31:11.890Z,6.54
2023-03-05T07:34:01.570Z,6.58
2023-03-05T07:36:44.543Z,6.59
2023-03-05T07:42:50.561Z,6.64
2023-03-05T07:45:25.272Z,6.65
2023-03-05T07:48:02.610Z,6.70
2023-03-05T07:53:47.562Z,6.70
2023-03-05T07:56:29.088Z,6.66
2023-03-05T07:59:00.812Z,6.69
2023-03-05T08:01:34.617Z,6.72
2023-03-05T08:04:06.864Z,6.70
2023-03-05T08:06:39.917Z,6.69
2023-03-05T08:09:10.814Z,6.73
2023-03-05T08:11:43.364Z,6.75
2023-03-05T08:14:20.257Z,6.81
2023-03-05T08:16:52.498Z,6.87
2023-03-05T08:19:23.421Z,6.91
2023-03-05T08:21:55.649Z,6.91
2023-03-05T08:24:29.957Z,6.94
2023-03-05T08:27:01.237Z,6.94
2023-03-05T08:29:32.609Z,6.92
2023-03-05T08:32:19.360Z,6.89
2023-03-05T08:34:58.112Z,6.86
2023-03-05T08:37:30.081Z,6.89
2023-03-05T08:40:04.107Z,6.95
2023-03-05T08:42:43.381Z,6.97
2023-03-05T08:45:17.233Z,6.96
2023-03-05T08:47:48.526Z,6.94
2023-03-05T08:50:19.452Z,6.95
2023-03-05T08:52:50.248Z,7.03
2023-03-05T08:55:21.279Z,7.10
2023-03-05T08:58:15.550Z,7.18
2023-03-05T09:00:53.795Z,7.32
2023-03-05T09:03:24.714Z,7.41
2023-03-05T09:05:55.528Z,7.53
2023-03-05T09:08:26.211Z,7.67
2023-03-05T09:10:57.384Z,7.83
2023-03-05T09:13:28.311Z,7.95
2023-03-05T09:16:00.427Z,7.95
2023-03-05T09:18:31.177Z,8.02
2023-03-05T09:21:01.945Z,8.08
2023-03-05T09:23:32.663Z,8.10
2023-03-05T09:26:03.494Z,8.14
2023-03-05T09:28:34.402Z,8.23
2023-03-05T09:31:05.777Z,8.32
2023-03-05T09:33:36.753Z,8.52
2023-03-05T09:36:16.596Z,8.68
2023-03-05T09:38:47.490Z,8.88
2023-03-05T09:41:19.348Z,9.16
2023-03-05T09:43:52.949Z,9.48
2023-03-05T09:46:28.285Z,9.84
2023-03-05T09:49:01.207Z,10.24
2023-03-05T09:51:35.656Z,10.56
2023-03-05T09:54:06.630Z,10.82
2023-03-05T09:56:38.195Z,11.14
2023-03-05T09:59:13.258Z,11.29
2023-03-05T10:01:45.747Z,11.42
2023-03-05T10:04:17.055Z,11.56
2023-03-05T10:06:51.180Z,11.74
2023-03-05T10:09:25.409Z,11.89
2023-03-05T10:11:56.538Z,12.09
2023-03-05T10:14:29.105Z,12.26
2023-03-05T10:17:04.934Z,12.54
2023-03-05T10:19:53.932Z,12.84
2023-03-05T10:22:26.411Z,13.01
2023-03-05T10:25:12.734Z,13.07
2023-03-05T10:27:48.740Z,13.12
2023-03-05T10:30:33.417Z,13.32
2023-03-05T10:33:08.192Z,13.51
2023-03-05T10:35:55.807Z,13.43
2023-03-05T10:38:32.434Z,13.50
2023-03-05T10:41:04.564Z,13.50
2023-03-05T10:43:36.760Z,13.48
2023-03-05T10:46:07.702Z,13.53
2023-03-05T10:48:39.228Z,13.62
2023-03-05T10:51:13.770Z,13.67
2023-03-05T10:53:49.610Z,13.78
2023-03-05T10:56:30.162Z,13.94
2023-03-05T11:02:08.995Z,14.51
2023-03-05T11:04:50.349Z,14.67
2023-03-05T11:10:42.213Z,14.92
2023-03-05T11:16:49.715Z,15.11
2023-03-05T11:19:21.770Z,15.14
2023-03-05T11:25:06.662Z,15.45
2023-03-05T11:27:44.190Z,15.55
2023-03-05T11:30:21.480Z,15.84
2023-03-05T11:32:52.590Z,16.05
2023-03-05T11:38:56.113Z,16.15
2023-03-05T11:41:28.816Z,16.35
2023-03-05T11:44:04.377Z,16.57
2023-03-05T11:46:39.158Z,16.67
2023-03-05T11:49:10.171Z,16.75
2023-03-05T11:51:42.677Z,16.90
2023-03-05T11:54:26.925Z,17.24
2023-03-05T11:57:12.399Z,17.45
2023-03-05T11:59:43.300Z,17.65
2023-03-05T12:02:21.301Z,17.63
2023-03-05T12:05:06.695Z,17.57
2023-03-05T12:07:43.601Z,17.48
2023-03-05T12:10:19.321Z,17.53
2023-03-05T12:12:52.598Z,17.50
2023-03-05T12:15:39.258Z,17.54
2023-03-05T12:18:12.358Z,17.70
2023-03-05T12:20:47.460Z,17.77
2023-03-05T12:23:20.324Z,17.77
2023-03-05T12:25:52.618Z,17.84
2023-03-05T12:28:37.297Z,17.84
2023-03-05T12:31:23.539Z,17.82
2023-03-05T12:33:56.153Z,17.96
2023-03-05T12:36:35.825Z,17.93
2023-03-05T12:39:22.266Z,17.42
2023-03-05T12:41:57.196Z,17.03
2023-03-05T12:44:30.419Z,16.57
2023-03-05T12:47:24.162Z,16.35
2023-03-05T12:49:56.617Z,16.20
2023-03-05T12:52:28.828Z,16.04
2023-03-05T12:55:22.830Z,15.84
2023-03-05T12:57:58.170Z,15.57
2023-03-05T13:00:34.632Z,15.39
2023-03-05T13:03:11.729Z,15.17
2023-03-05T13:07:05.091Z,14.98
2023-03-05T13:09:36.686Z,14.87
2023-03-05T13:12:11.717Z,14.85
2023-03-05T13:14:42.705Z,14.62
2023-03-05T13:17:33.248Z,14.47
2023-03-05T13:20:18.078Z,14.34
2023-03-05T13:22:52.563Z,14.20
2023-03-05T13:25:26.940Z,14.10
2023-03-05T13:28:05.194Z,13.98
2023-03-05T13:30:36.123Z,13.82
2023-03-05T13:33:08.997Z,13.71
2023-03-05T13:35:43.814Z,13.62
2023-03-05T13:38:33.780Z,13.53
2023-03-05T13:41:12.721Z,13.40
2023-03-05T13:43:50.184Z,13.39
2023-03-05T13:46:29.213Z,13.32
2023-03-05T13:49:18.041Z,13.29
2023-03-05T13:51:49.808Z,13.33
2023-03-05T13:54:20.815Z,13.33
2023-03-05T13:56:52.794Z,13.33
2023-03-05T13:59:24.532Z,13.36
2023-03-05T14:01:55.402Z,13.28
2023-03-05T14:04:27.171Z,13.20
2023-03-05T14:06:59.466Z,13.09
2023-03-05T14:09:30.798Z,12.99
2023-03-05T14:12:02.963Z,12.92
2023-03-05T14:14:35.821Z,12.90
2023-03-05T14:17:20.119Z,12.95
2023-03-05T14:19:51.052Z,12.90
2023-03-05T14:22:32.705Z,12.91
2023-03-05T14:25:03.691Z,12.91
2023-03-05T14:27:35.312Z,12.93
2023-03-05T14:30:07.509Z,12.88
2023-03-05T14:32:38.803Z,12.81
2023-03-05T14:35:19.662Z,12.81
2023-03-05T14:37:51.195Z,12.86
2023-03-05T14:40:32.473Z,12.90
2023-03-05T14:43:07.310Z,12.92
2023-03-05T14:45:44.449Z,12.89
2023-03-05T14:48:19.116Z,12.90
2023-03-05T14:50:53.237Z,12.89
2023-03-05T14:53:25.853Z,12.84
2023-03-05T14:56:01.821Z,12.80
2023-03-05T14:58:35.578Z,12.77
2023-03-05T15:01:07.631Z,12.75
2023-03-05T15:03:41.213Z,12.77
2023-03-05T15:06:15.924Z,12.77
2023-03-05T15:08:46.847Z,12.69
2023-03-05T15:11:17.565Z,12.65
2023-03-05T15:13:50.191Z,12.64
2023-03-05T15:16:21.122Z,12.63
2023-03-05T15:18:52.009Z,12.60
2023-03-05T15:21:22.866Z,12.57
2023-03-05T15:23:54.676Z,12.56
2023-03-05T15:26:26.092Z,12.48
2023-03-05T15:31:30.403Z,12.36
2023-03-05T15:34:01.444Z,12.32
2023-03-05T15:36:33.748Z,12.28
2023-03-05T15:39:04.873Z,12.26
2023-03-05T15:41:35.631Z,12.30
2023-03-05T15:44:07.028Z,12.33
2023-03-05T15:55:56.895Z,12.37
2023-03-05T15:58:31.204Z,12.34
2023-03-05T16:01:02.222Z,12.31
2023-03-05T16:03:33.846Z,12.32
2023-03-05T16:06:06.391Z,12.33
2023-03-05T16:08:37.392Z,12.33
2023-03-05T16:11:08.316Z,12.32
2023-03-05T16:19:45.439Z,12.39
2023-03-05T16:22:22.874Z,12.40
2023-03-05T16:25:22.162Z,12.37
2023-03-05T16:27:52.896Z,12.36
2023-03-05T16:30:28.891Z,12.34
2023-03-05T16:33:02.770Z,12.30
2023-03-05T16:35:33.709Z,12.28
2023-03-05T16:38:04.716Z,12.25
2023-03-05T16:41:02.867Z,12.22
2023-03-05T16:43:26.724Z,12.19
2023-03-05T16:45:57.425Z,12.14
2023-03-05T16:48:28.370Z,12.10
2023-03-05T16:50:59.420Z,12.04
2023-03-05T16:53:34.433Z,12.00
2023-03-05T16:56:06.105Z,11.96
2023-03-05T16:58:37.710Z,11.92
2023-03-05T17:01:12.321Z,11.87
2023-03-05T17:04:08.833Z,11.82
2023-03-05T17:06:39.678Z,11.76
2023-03-05T17:09:10.584Z,11.72
2023-03-05T17:11:45.245Z,11.69
2023-03-05T17:20:35.727Z,11.43
2023-03-05T17:23:06.449Z,11.33
2023-03-05T17:25:37.249Z,11.32
2023-03-05T17:28:08.174Z,11.30
2023-03-05T17:30:39.024Z,11.26
2023-03-05T17:33:17.378Z,11.23
2023-03-05T17:35:52.846Z,11.19
2023-03-05T17:38:23.670Z,11.16
2023-03-05T17:40:56.886Z,11.10
2023-03-05T17:43:28.034Z,11.03
2023-03-05T17:46:00.854Z,10.99
2023-03-05T17:48:34.354Z,10.95
2023-03-05T17:51:06.318Z,10.91
2023-03-05T17:53:39.136Z,10.89
2023-03-05T17:56:25.221Z,10.86
2023-03-05T17:59:06.656Z,10.82
2023-03-05T18:01:39.025Z,10.78
2023-03-05T18:04:11.290Z,10.77
2023-03-05T18:07:04.634Z,10.74
2023-03-05T18:09:58.938Z,10.68
2023-03-05T18:12:30.232Z,10.66
2023-03-05T18:15:01.083Z,10.60
2023-03-05T18:17:31.846Z,10.55
2023-03-05T18:20:13.326Z,10.50
2023-03-05T18:23:01.143Z,10.46
2023-03-05T18:25:32.404Z,10.43
2023-03-05T18:28:04.774Z,10.39
2023-03-05T18:30:35.791Z,10.37
2023-03-05T18:33:09.316Z,10.36
2023-03-05T18:35:40.356Z,10.30
2023-03-05T18:38:11.150Z,10.19
2023-03-05T18:40:41.946Z,10.09
2023-03-05T18:43:17.971Z,10.04
2023-03-05T18:46:26.430Z,9.99
2023-03-05T18:49:01.947Z,9.96
2023-03-05T18:51:44.612Z,9.93
2023-03-05T18:54:29.758Z,9.91
2023-03-05T18:57:01.375Z,9.90
2023-03-05T18:59:34.689Z,9.90
2023-03-05T19:02:05.543Z,9.89
2023-03-05T19:04:36.635Z,9.88
2023-03-05T19:07:07.700Z,9.86
2023-03-05T19:09:59.017Z,9.82
2023-03-05T19:12:33.092Z,9.79
2023-03-05T19:15:04.344Z,9.76
2023-03-05T19:17:35.409Z,9.72
2023-03-05T19:20:08.005Z,9.69
2023-03-05T19:22:38.853Z,9.64
2023-03-05T19:25:11.516Z,9.61
2023-03-05T19:27:42.517Z,9.56
2023-03-05T19:30:16.132Z,9.53
2023-03-05T19:32:49.841Z,9.52
2023-03-05T19:35:20.824Z,9.50
2023-03-05T19:37:51.647Z,9.49
2023-03-05T19:40:22.661Z,9.49
2023-03-05T19:42:55.825Z,9.47
2023-03-05T19:45:26.621Z,9.42
2023-03-05T19:47:57.258Z,9.37
2023-03-05T19:50:28.095Z,9.34
2023-03-05T19:52:58.899Z,9.33
2023-03-05T19:55:29.973Z,9.33
2023-03-05T19:58:00.853Z,9.33
2023-03-05T20:00:34.638Z,9.35
2023-03-05T20:03:05.379Z,9.35
2023-03-05T20:05:37.020Z,9.32
2023-03-05T20:08:07.910Z,9.31
2023-03-05T20:10:38.819Z,9.29
2023-03-05T20:13:09.788Z,9.27
2023-03-05T20:15:40.590Z,9.24
2023-03-05T20:18:11.465Z,9.17
2023-03-05T20:20:42.343Z,9.11
2023-03-05T20:23:13.186Z,9.10
2023-03-05T20:25:44.113Z,9.08
2023-03-05T20:28:15.121Z,9.07
2023-03-05T20:30:45.891Z,9.01
2023-03-05T20:33:16.669Z,8.83
2023-03-05T20:35:47.540Z,8.64
2023-03-05T20:38:26.326Z,8.47
2023-03-05T20:40:58.873Z,8.31
2023-03-05T20:43:30.505Z,8.20
2023-03-05T20:46:01.647Z,8.08
2023-03-05T20:48:33.048Z,7.97
2023-03-05T20:51:13.103Z,7.95
2023-03-05T20:53:43.942Z,7.90
2023-03-05T20:56:14.826Z,7.86
2023-03-05T20:58:45.721Z,7.82
2023-03-05T21:01:16.506Z,7.78
2023-03-05T21:03:47.351Z,7.69
2023-03-05T21:06:18.126Z,7.54
2023-03-05T21:08:49.049Z,7.38
2023-03-05T21:11:19.976Z,7.27
2023-03-05T21:13:50.762Z,7.22
2023-03-05T21:16:22.576Z,7.17
2023-03-05T21:18:53.709Z,7.10
2023-03-05T21:21:24.647Z,7.08
2023-03-05T21:23:55.593Z,7.07
2023-03-05T21:26:26.502Z,7.04
2023-03-05T21:28:57.385Z,6.96
2023-03-05T21:31:28.154Z,6.89
2023-03-05T21:33:58.951Z,6.88
2023-03-05T21:36:29.692Z,6.82
2023-03-05T21:39:00.913Z,6.75
2023-03-05T21:41:31.828Z,6.73
2023-03-05T21:44:04.263Z,6.69
2023-03-05T21:46:35.385Z,6.59
2023-03-05T21:49:06.248Z,6.56
2023-03-05T21:52:09.489Z,6.50
2023-03-05T21:54:40.482Z,6.48
2023-03-05T21:57:11.873Z,6.52
2023-03-05T21:59:42.993Z,6.58
2023-03-05T22:02:14.141Z,6.59
2023-03-05T22:04:45.066Z,6.57
2023-03-05T22:07:16.186Z,6.55
2023-03-05T22:09:47.295Z,6.45
2023-03-05T22:13:00.557Z,6.39
2023-03-05T22:15:31.391Z,6.33
2023-03-05T22:18:02.240Z,6.37
2023-03-05T22:20:35.097Z,6.41
2023-03-05T22:23:06.009Z,6.44
2023-03-05T22:25:36.894Z,6.40
2023-03-05T22:28:07.780Z,6.34
2023-03-05T22:30:38.890Z,6.27
2023-03-05T22:33:09.852Z,6.20
2023-03-05T22:35:41.455Z,6.12
2023-03-05T22:38:12.832Z,6.08
2023-03-05T22:40:44.339Z,6.04
2023-03-05T22:43:15.350Z,6.07
2023-03-05T22:45:46.425Z,6.06
2023-03-05T22:48:17.423Z,6.00
2023-03-05T22:50:48.253Z,5.90
2023-03-05T22:53:19.102Z,5.89
2023-03-05T22:55:50.672Z,5.89
2023-03-05T22:58:21.564Z,5.91
2023-03-05T23:00:52.512Z,5.88
2023-03-05T23:03:23.431Z,5.82
2023-03-05T23:05:54.354Z,5.81
2023-03-05T23:08:25.189Z,5.77
2023-03-05T23:10:56.028Z,5.75
2023-03-05T23:13:26.964Z,5.69
2023-03-05T23:15:57.954Z,5.61
2023-03-05T23:18:28.917Z,5.52
2023-03-05T23:20:59.887Z,5.41
2023-03-05T23:23:30.740Z,5.33
2023-03-05T23:26:01.524Z,5.29
2023-03-05T23:28:32.391Z,5.20
2023-03-05T23:31:04.048Z,5.14
2023-03-05T23:33:34.858Z,5.12
2023-03-05T23:36:06.016Z,5.09
2023-03-05T23:38:37.912Z,5.05
2023-03-05T23:41:10.049Z,5.00
2023-03-05T23:43:40.915Z,4.96
2023-03-05T23:46:13.110Z,4.93
2023-03-05T23:48:44.094Z,4.89
2023-03-05T23:51:15.036Z,4.85
2023-03-05T23:53:45.911Z,4.78
2023-03-05T23:56:16.839Z,4.73
2023-03-05T23:58:47.623Z,4.71
